Westphalia, Iowa
Current Conditions -  °F | °C
As of 8:55 PM on Wednesday 26 Nov 2014 (Local Time) from KHNR Reporting Station
Overcast Overcast  
Wind Chill: 10°   Ceiling: 1400
Heat Index: 23°   Visibility: 10mi
Dew Point: 21°   Wind: 16mph
Humidity: 93%   Direction: 340°NNW
Pressure: 30.4"   Gusts: 23mph
Location:  41.72°N, 95.39°W
Report Text: KHNR 270255Z AUTO 34014G20KT 10SM OVC014 M05/M06 A3040 RMK AO2
Loading
Personal Weather Stations






























Interactive Weather Map New forecast layout! Learn more

10-Day Weather Forecast

Advertisements
Track Severe Weather on mobile